Pittsburgh, Pennsylvania
Traffic Map
Current Weather Conditions
Pittsburgh, Pennsylvania
Overcast Light Rain
Overcast
15°
Feels Like: 15°
Wind Chill: 15° Ceiling: 1300
Heat Index: 15° Visibility: 9mi
Dew Point: 14° Wind: 9mph
Humidity: 93% Direction: 190° (S)
Pressure: 29.94in Gusts: 0mph
Raw Report DataKAGC 011200Z 19008KT 9SM -RA FEW007 BKN013 OVC018 15/14 A2994 RMK AO2 P0001 T01500139
Traffic Incident Summary
Active as of:
Severity:
Category:
InformationThere was an issue retrieving the traffic information for this location. Please try a different location or try again shortly.
Advertisements
Track Severe Weather on mobile